createdAt,value
2018-12-31T21:02:12.351Z,8.92
2018-12-31T21:04:43.902Z,8.56
2018-12-31T21:07:15.419Z,8.15
2018-12-31T21:09:46.833Z,8.15
2018-12-31T21:12:24.134Z,8.37
2018-12-31T21:14:55.454Z,8.48
2018-12-31T21:17:26.955Z,8.71
2018-12-31T21:19:58.342Z,8.77
2018-12-31T21:22:29.639Z,8.65
2018-12-31T21:25:04.059Z,8.42
2018-12-31T21:27:35.778Z,8.49
2018-12-31T21:30:11.736Z,8.51
2018-12-31T21:32:44.142Z,8.59
2018-12-31T21:35:15.527Z,8.54
2018-12-31T21:37:47.177Z,8.72
2018-12-31T21:40:21.941Z,8.52
2018-12-31T21:42:53.340Z,8.68
2018-12-31T21:45:26.191Z,8.87
2018-12-31T21:47:59.576Z,9.11
2018-12-31T21:50:30.930Z,9.13
2018-12-31T21:53:02.242Z,8.85
2018-12-31T21:55:33.608Z,8.86
2018-12-31T21:58:05.210Z,9.02
2018-12-31T22:00:36.686Z,9.20
2018-12-31T22:03:08.235Z,9.61
2018-12-31T22:05:39.797Z,9.84
2018-12-31T22:08:11.235Z,9.93
2018-12-31T22:10:42.753Z,10.08
2018-12-31T22:13:14.188Z,10.17
2018-12-31T22:15:45.884Z,10.19
2018-12-31T22:18:19.052Z,10.24
2018-12-31T22:20:50.777Z,10.19
2018-12-31T22:23:22.136Z,10.09
2018-12-31T22:25:53.587Z,10.05
2018-12-31T22:28:24.951Z,10.19
2018-12-31T22:30:56.340Z,10.21
2018-12-31T22:33:31.372Z,10.22
2018-12-31T22:36:02.981Z,10.20
2018-12-31T22:38:34.698Z,10.25
2018-12-31T22:41:06.311Z,10.11
2018-12-31T22:43:37.805Z,10.18
2018-12-31T22:46:09.241Z,10.04
2018-12-31T22:48:42.279Z,9.97
2018-12-31T22:51:13.625Z,9.95
2018-12-31T22:53:45.119Z,10.03
2018-12-31T22:56:16.650Z,10.15
2018-12-31T22:58:48.146Z,10.13
2018-12-31T23:01:19.595Z,10.09
2018-12-31T23:03:51.277Z,10.08
2018-12-31T23:06:22.856Z,10.05
2018-12-31T23:08:54.293Z,10.01
2018-12-31T23:11:25.708Z,9.95
2018-12-31T23:13:57.657Z,10.06
2018-12-31T23:16:29.117Z,10.19
2018-12-31T23:19:00.422Z,10.18
2018-12-31T23:21:32.026Z,10.12
2018-12-31T23:24:03.568Z,10.15
2018-12-31T23:26:35.197Z,9.98
2018-12-31T23:29:06.801Z,10.11
2018-12-31T23:31:38.102Z,10.17
2018-12-31T23:34:09.665Z,10.20
2018-12-31T23:36:41.366Z,10.21
2018-12-31T23:39:12.797Z,10.19
2018-12-31T23:41:44.167Z,10.19
2018-12-31T23:44:15.569Z,10.21
2018-12-31T23:46:53.649Z,10.17
2018-12-31T23:49:26.696Z,10.08
2018-12-31T23:51:58.155Z,10.00
2018-12-31T23:54:29.771Z,10.08
2018-12-31T23:57:01.421Z,10.12
2018-12-31T23:59:32.872Z,10.02
